Time,TemperatureF,DewpointF,PressureIn,WindDirection,WindDirectionDegrees,WindSpeedMPH,WindSpeedGustMPH,Humidity,HourlyPrecipIn,Conditions,Clouds,dailyrainin,SoftwareType,DateUTC
2013-03-04 00:13:00,25.3,21.2,30.02,ENE,67,5.8,-999.0,84,-99.99,,,0.00,Acu-Link.com,2013-03-04 05:13:00,
2013-03-04 00:29:00,25.3,21.2,30.02,NW,315,17.7,-999.0,84,-99.99,,,0.00,Acu-Link.com,2013-03-04 05:29:00,
2013-03-04 00:44:00,25.2,21.3,30.02,WSW,247,7.4,-999.0,85,-99.99,,,0.00,Acu-Link.com,2013-03-04 05:44:00,
2013-03-04 00:59:00,25.2,21.3,30.02,West,270,4.3,-999.0,85,-99.99,,,0.00,Acu-Link.com,2013-03-04 05:59:00,
2013-03-04 01:14:00,25.2,21.3,30.03,West,270,5.8,-999.0,85,-99.99,,,0.00,Acu-Link.com,2013-03-04 06:14:00,
2013-03-04 01:29:00,25.2,21.6,30.04,West,270,8.3,-999.0,86,-99.99,,,0.00,Acu-Link.com,2013-03-04 06:29:00,
2013-03-04 01:45:00,25.0,21.4,30.03,WNW,292,2.2,-999.0,86,-99.99,,,0.00,Acu-Link.com,2013-03-04 06:45:00,
2013-03-04 02:00:00,25.0,21.7,30.04,West,270,2.2,-999.0,87,-99.99,,,0.00,Acu-Link.com,2013-03-04 07:00:00,
2013-03-04 02:15:00,25.2,21.8,30.04,NW,315,8.9,-999.0,87,-99.99,,,0.00,Acu-Link.com,2013-03-04 07:15:00,
2013-03-04 02:30:00,25.2,21.8,30.03,West,270,4.3,-999.0,87,-99.99,,,0.00,Acu-Link.com,2013-03-04 07:30:00,
2013-03-04 02:45:00,25.2,21.8,30.03,WNW,292,10.3,-999.0,87,-99.99,,,0.00,Acu-Link.com,2013-03-04 07:45:00,
2013-03-04 03:01:00,25.0,21.9,30.03,SW,225,3.8,-999.0,88,-99.99,,,0.00,Acu-Link.com,2013-03-04 08:01:00,
2013-03-04 03:16:00,25.0,21.9,30.04,West,270,6.7,-999.0,88,-99.99,,,0.00,Acu-Link.com,2013-03-04 08:16:00,
2013-03-04 03:31:00,25.2,22.1,30.04,West,270,4.7,-999.0,88,-99.99,,,0.00,Acu-Link.com,2013-03-04 08:31:00,
2013-03-04 03:46:00,25.0,21.9,30.04,NW,315,5.1,-999.0,88,-99.99,,,0.00,Acu-Link.com,2013-03-04 08:46:00,
2013-03-04 04:02:00,25.0,21.9,30.04,SW,225,3.8,-999.0,88,-99.99,,,0.00,Acu-Link.com,2013-03-04 09:02:00,
2013-03-04 04:19:00,25.0,21.9,30.04,SW,225,2.7,-999.0,88,-99.99,,,0.00,Acu-Link.com,2013-03-04 09:19:00,
2013-03-04 04:35:00,25.0,22.2,30.05,WNW,292,1.6,-999.0,89,-99.99,,,0.00,Acu-Link.com,2013-03-04 09:35:00,
2013-03-04 04:50:00,24.8,22.0,30.05,WSW,247,5.1,-999.0,89,-99.99,,,0.00,Acu-Link.com,2013-03-04 09:50:00,
2013-03-04 05:05:00,24.8,22.0,30.05,NW,315,4.3,-999.0,89,-99.99,,,0.00,Acu-Link.com,2013-03-04 10:05:00,
2013-03-04 05:20:00,24.6,21.9,30.05,WNW,292,5.1,-999.0,89,-99.99,,,0.00,Acu-Link.com,2013-03-04 10:20:00,
2013-03-04 05:35:00,24.8,22.0,30.05,WSW,247,4.3,-999.0,89,-99.99,,,0.00,Acu-Link.com,2013-03-04 10:35:00,
2013-03-04 05:50:00,25.2,22.4,30.06,NW,315,4.7,-999.0,89,-99.99,,,0.00,Acu-Link.com,2013-03-04 10:50:00,
2013-03-04 06:06:00,25.3,22.6,30.06,West,270,5.1,-999.0,89,-99.99,,,0.00,Acu-Link.com,2013-03-04 11:06:00,
2013-03-04 06:21:00,25.7,22.9,30.06,WNW,292,6.3,-999.0,89,-99.99,,,0.00,Acu-Link.com,2013-03-04 11:21:00,
2013-03-04 06:36:00,25.7,22.9,30.06,NW,315,8.9,-999.0,89,-99.99,,,0.00,Acu-Link.com,2013-03-04 11:36:00,
2013-03-04 06:51:00,25.9,23.1,30.06,WNW,292,7.8,-999.0,89,-99.99,,,0.00,Acu-Link.com,2013-03-04 11:51:00,
2013-03-04 07:06:00,26.2,23.4,30.06,NW,315,5.1,-999.0,89,-99.99,,,0.00,Acu-Link.com,2013-03-04 12:06:00,
2013-03-04 07:22:00,26.8,24.0,30.07,West,270,8.3,-999.0,89,-99.99,,,0.00,Acu-Link.com,2013-03-04 12:22:00,
2013-03-04 07:37:00,27.7,24.6,30.07,West,270,8.3,-999.0,88,-99.99,,,0.00,Acu-Link.com,2013-03-04 12:37:00,
2013-03-04 07:52:00,28.2,24.9,30.07,WNW,292,5.8,-999.0,87,-99.99,,,0.00,Acu-Link.com,2013-03-04 12:52:00,
2013-03-04 08:07:00,28.0,24.7,30.07,SW,225,11.0,-999.0,87,-99.99,,,0.00,Acu-Link.com,2013-03-04 13:07:00,
2013-03-04 08:23:00,29.8,25.9,30.07,SSW,202,6.3,-999.0,85,-99.99,,,0.00,Acu-Link.com,2013-03-04 13:23:00,
2013-03-04 08:38:00,28.4,24.8,30.08,WNW,292,11.4,-999.0,86,-99.99,,,0.00,Acu-Link.com,2013-03-04 13:38:00,
2013-03-04 08:53:00,28.9,25.0,30.08,NW,315,4.7,-999.0,85,-99.99,,,0.00,Acu-Link.com,2013-03-04 13:53:00,
2013-03-04 09:08:00,29.3,25.1,30.07,NW,315,7.8,-999.0,84,-99.99,,,0.00,Acu-Link.com,2013-03-04 14:08:00,
2013-03-04 09:23:00,30.2,25.1,30.07,West,270,7.4,-999.0,81,-99.99,,,0.00,Acu-Link.com,2013-03-04 14:23:00,
2013-03-04 09:39:00,31.1,25.7,30.07,SSW,202,9.4,-999.0,80,-99.99,,,0.00,Acu-Link.com,2013-03-04 14:39:00,
2013-03-04 09:54:00,31.5,25.4,30.07,NW,315,5.8,-999.0,78,-99.99,,,0.00,Acu-Link.com,2013-03-04 14:54:00,
2013-03-04 10:09:00,32.5,25.8,30.06,NW,315,5.1,-999.0,76,-99.99,,,0.00,Acu-Link.com,2013-03-04 15:09:00,
2013-03-04 10:24:00,32.4,25.7,30.07,West,270,15.0,-999.0,76,-99.99,,,0.00,Acu-Link.com,2013-03-04 15:24:00,
2013-03-04 10:39:00,34.3,26.9,30.06,NW,315,7.8,-999.0,74,-99.99,,,0.00,Acu-Link.com,2013-03-04 15:39:00,
2013-03-04 10:55:00,34.0,26.6,30.06,NW,315,14.1,-999.0,74,-99.99,,,0.00,Acu-Link.com,2013-03-04 15:55:00,
2013-03-04 11:10:00,35.8,27.3,30.05,NW,315,14.1,-999.0,71,-99.99,,,0.00,Acu-Link.com,2013-03-04 16:10:00,
2013-03-04 11:25:00,36.3,27.5,30.05,West,270,8.9,-999.0,70,-99.99,,,0.00,Acu-Link.com,2013-03-04 16:25:00,
2013-03-04 11:40:00,34.9,26.8,30.06,NW,315,13.0,-999.0,72,-99.99,,,0.00,Acu-Link.com,2013-03-04 16:40:00,
2013-03-04 11:55:00,33.4,26.1,30.07,South,180,8.9,-999.0,74,-99.99,,,0.00,Acu-Link.com,2013-03-04 16:55:00,
2013-03-04 12:11:00,36.1,27.3,30.06,WNW,292,11.4,-999.0,70,-99.99,,,0.00,Acu-Link.com,2013-03-04 17:11:00,
2013-03-04 12:26:00,37.0,27.5,30.05,WNW,292,4.7,-999.0,68,-99.99,,,0.00,Acu-Link.com,2013-03-04 17:26:00,
2013-03-04 12:41:00,37.0,27.5,30.04,WNW,292,11.0,-999.0,68,-99.99,,,0.00,Acu-Link.com,2013-03-04 17:41:00,
2013-03-04 12:56:00,37.9,28.0,30.03,WNW,292,20.1,-999.0,67,-99.99,,,0.00,Acu-Link.com,2013-03-04 17:56:00,
2013-03-04 13:12:00,38.1,27.8,30.04,NNW,337,10.3,-999.0,66,-99.99,,,0.00,Acu-Link.com,2013-03-04 18:12:00,
2013-03-04 13:27:00,37.9,27.6,30.03,WSW,247,7.8,-999.0,66,-99.99,,,0.00,Acu-Link.com,2013-03-04 18:27:00,
2013-03-04 13:42:00,39.6,28.4,30.03,WNW,292,11.0,-999.0,64,-99.99,,,0.01,Acu-Link.com,2013-03-04 18:42:00,
2013-03-04 13:57:00,39.4,28.2,30.03,WNW,292,20.1,-999.0,64,-99.99,,,0.01,Acu-Link.com,2013-03-04 18:57:00,
2013-03-04 14:12:00,39.2,28.1,30.03,NW,315,17.7,-999.0,64,-99.99,,,0.01,Acu-Link.com,2013-03-04 19:12:00,
2013-03-04 14:28:00,38.5,27.4,30.04,WNW,292,21.3,-999.0,64,-99.99,,,0.02,Acu-Link.com,2013-03-04 19:28:00,
2013-03-04 14:43:00,38.8,27.7,30.04,WNW,292,8.3,-999.0,64,-99.99,,,0.02,Acu-Link.com,2013-03-04 19:43:00,
2013-03-04 14:58:00,39.4,27.8,30.04,West,270,7.4,-999.0,63,-99.99,,,0.02,Acu-Link.com,2013-03-04 19:58:00,
2013-03-04 15:13:00,38.7,27.9,30.04,West,270,9.8,-999.0,65,-99.99,,,0.02,Acu-Link.com,2013-03-04 20:13:00,
2013-03-04 15:28:00,38.1,27.4,30.05,NW,315,12.5,-999.0,65,-99.99,,,0.02,Acu-Link.com,2013-03-04 20:28:00,
2013-03-04 15:44:00,37.8,27.4,30.04,NNW,337,8.9,-999.0,66,-99.99,,,0.02,Acu-Link.com,2013-03-04 20:44:00,
2013-03-04 15:59:00,37.0,27.5,30.04,NW,315,11.9,-999.0,68,-99.99,,,0.02,Acu-Link.com,2013-03-04 20:59:00,
2013-03-04 16:14:00,36.1,27.0,30.04,West,270,9.4,-999.0,69,-99.99,,,0.02,Acu-Link.com,2013-03-04 21:14:00,
2013-03-04 16:29:00,33.6,25.9,30.06,West,270,11.4,-999.0,73,-99.99,,,0.02,Acu-Link.com,2013-03-04 21:29:00,
2013-03-04 16:44:00,33.6,26.2,30.07,West,270,8.3,-999.0,74,-99.99,,,0.02,Acu-Link.com,2013-03-04 21:44:00,
2013-03-04 17:00:00,33.1,25.7,30.07,NW,315,9.8,-999.0,74,-99.99,,,0.02,Acu-Link.com,2013-03-04 22:00:00,
2013-03-04 17:15:00,31.8,25.1,30.08,WNW,292,25.3,-999.0,76,-99.99,,,0.02,Acu-Link.com,2013-03-04 22:15:00,
2013-03-04 17:30:00,31.1,24.4,30.09,NW,315,21.3,-999.0,76,-99.99,,,0.02,Acu-Link.com,2013-03-04 22:30:00,
2013-03-04 17:45:00,30.4,24.4,30.09,NW,315,11.9,-999.0,78,-99.99,,,0.02,Acu-Link.com,2013-03-04 22:45:00,
2013-03-04 18:00:00,30.2,24.5,30.10,NW,315,8.9,-999.0,79,-99.99,,,0.02,Acu-Link.com,2013-03-04 23:00:00,
2013-03-04 18:16:00,30.0,24.3,30.11,NW,315,11.0,-999.0,79,-99.99,,,0.02,Acu-Link.com,2013-03-04 23:16:00,
2013-03-04 18:31:00,29.5,24.1,30.11,WNW,292,5.1,-999.0,80,-99.99,,,0.02,Acu-Link.com,2013-03-04 23:31:00,
2013-03-04 18:46:00,29.3,23.9,30.12,NW,315,9.4,-999.0,80,-99.99,,,0.02,Acu-Link.com,2013-03-04 23:46:00,
2013-03-04 19:01:00,29.3,23.9,30.12,West,270,16.1,-999.0,80,-99.99,,,0.02,Acu-Link.com,2013-03-05 00:01:00,
2013-03-04 19:17:00,29.1,24.0,30.11,West,270,10.3,-999.0,81,-99.99,,,0.02,Acu-Link.com,2013-03-05 00:17:00,
2013-03-04 19:32:00,28.8,24.0,30.12,WNW,292,9.4,-999.0,82,-99.99,,,0.02,Acu-Link.com,2013-03-05 00:32:00,
2013-03-04 19:47:00,28.9,24.1,30.11,WNW,292,11.4,-999.0,82,-99.99,,,0.02,Acu-Link.com,2013-03-05 00:47:00,
2013-03-04 20:02:00,28.9,24.1,30.11,WNW,292,15.4,-999.0,82,-99.99,,,0.02,Acu-Link.com,2013-03-05 01:02:00,
2013-03-04 20:17:00,29.1,24.3,30.13,West,270,22.8,-999.0,82,-99.99,,,0.02,Acu-Link.com,2013-03-05 01:17:00,
2013-03-04 20:33:00,28.9,24.4,30.14,West,270,14.5,-999.0,83,-99.99,,,0.02,Acu-Link.com,2013-03-05 01:33:00,
2013-03-04 20:48:00,28.9,24.7,30.14,West,270,11.4,-999.0,84,-99.99,,,0.02,Acu-Link.com,2013-03-05 01:48:00,
2013-03-04 21:03:00,28.8,24.8,30.15,WNW,292,16.6,-999.0,85,-99.99,,,0.02,Acu-Link.com,2013-03-05 02:03:00,
2013-03-04 21:18:00,28.8,24.5,30.15,West,270,10.3,-999.0,84,-99.99,,,0.02,Acu-Link.com,2013-03-05 02:18:00,
2013-03-04 21:33:00,28.8,24.5,30.15,East,90,8.9,-999.0,84,-99.99,,,0.02,Acu-Link.com,2013-03-05 02:33:00,
2013-03-04 21:49:00,28.6,24.7,30.15,NW,315,13.0,-999.0,85,-99.99,,,0.02,Acu-Link.com,2013-03-05 02:49:00,
2013-03-04 22:04:00,28.6,24.4,30.16,NW,315,11.0,-999.0,84,-99.99,,,0.02,Acu-Link.com,2013-03-05 03:04:00,
2013-03-04 22:19:00,28.6,24.7,30.16,NW,315,16.1,-999.0,85,-99.99,,,0.02,Acu-Link.com,2013-03-05 03:19:00,
2013-03-04 22:34:00,28.4,24.5,30.16,West,270,5.8,-999.0,85,-99.99,,,0.02,Acu-Link.com,2013-03-05 03:34:00,
2013-03-04 22:49:00,28.0,24.1,30.17,WNW,292,19.0,-999.0,85,-99.99,,,0.02,Acu-Link.com,2013-03-05 03:49:00,
2013-03-04 23:05:00,28.2,24.3,30.17,NNW,337,8.9,-999.0,85,-99.99,,,0.02,Acu-Link.com,2013-03-05 04:05:00,
2013-03-04 23:20:00,28.0,24.1,30.17,NW,315,11.9,-999.0,85,-99.99,,,0.02,Acu-Link.com,2013-03-05 04:20:00,
2013-03-04 23:35:00,27.9,24.2,30.17,NW,315,11.4,-999.0,86,-99.99,,,0.04,Acu-Link.com,2013-03-05 04:35:00,
2013-03-04 23:50:00,27.9,24.2,30.17,West,270,7.8,-999.0,86,-99.99,,,0.04,Acu-Link.com,2013-03-05 04:50:00,